Portada
METAR-TAF:

METAR-TAF

Aeropuertos :

Kermán, Irán

latitud: 30-15N, longitud: 056-58E, altitud: 1748 m

Observación

El informe se hizo hace 48 minutos, a las 23:00 UTC
Viento 4 kt del este-sureste
Temperatura 5°C
Humedad 38%
Presión 1023 hPa
Visibilidad 10 km o más
Nubes dispersas a una altura de 10000 ft

METAR: OIKK 142300Z 12004KT 9999 SCT100 05/M08 Q1022 A3020

Hora: 03:18 (23:48 UTC)

Pronóstico

El informe se hizo hace 48 minutos, a las 23:00 UTC
Pronóstico válido del 15 a las 00 UTC al 16 a las 06 UTC
Viento 8 kt del este
Visibilidad: 7000 m
Escasas nubes a una altura de 4000 ft
Nubes dispersas a una altura de 10000 ft
Temporalmente
del 15 a las 09 UTC al 15 a las 15 UTC
Escasas nubes a una altura de 3500 ft, Cumulus congestus.
Nubes dispersas a una altura de 4000 ft
Nubes dispersas a una altura de 9000 ft

TAF: OIKK 142300Z 1500/1606 10008KT 7000 FEW040 SCT100 TEMPO 1509/1515 FEW035TCU SCT040 SCT090

Observaciones y pronósticos meteorológicos de más de 4000 aeropuertos (mensajes METAR y TAF).

Los puntos amarillos y rojos representan las estaciones disponibles.

Ponga el ratón en el punto deseado para ver el nombre de la estación.

Haga clic para ver las observaciones y los pronósticos meteorológicos.

Para cambiar el mapa : haga clic en los botones verdes con una cruz de color negro para hacer un zoom, en el botón verde con un guión para alejar o en las flechas verdes para mapas adyacentes.


METAR-TAF: